createdAt,value
2022-08-25T00:01:06.228Z,1.53
2022-08-25T00:06:01.366Z,1.38
2022-08-25T00:11:03.637Z,1.80
2022-08-25T00:15:58.684Z,1.70
2022-08-25T00:20:53.405Z,1.38
2022-08-25T00:25:46.739Z,1.55
2022-08-25T00:30:41.439Z,2.10
2022-08-25T00:35:36.247Z,1.95
2022-08-25T00:40:30.340Z,1.63
2022-08-25T00:45:24.661Z,1.70
2022-08-25T00:50:19.060Z,1.63
2022-08-25T00:55:37.464Z,1.63
2022-08-25T01:00:35.317Z,1.98
2022-08-25T01:05:30.680Z,1.50
2022-08-25T01:10:26.937Z,1.45
2022-08-25T01:15:22.603Z,1.65
2022-08-25T01:20:17.311Z,1.83
2022-08-25T01:25:34.611Z,1.60
2022-08-25T01:30:28.829Z,1.98
2022-08-25T01:35:22.771Z,1.98
2022-08-25T01:40:17.662Z,1.98
2022-08-25T01:45:11.564Z,2.03
2022-08-25T01:50:05.831Z,1.77
2022-08-25T01:55:00.079Z,1.65
2022-08-25T01:59:54.761Z,1.60
2022-08-25T02:04:49.138Z,1.65
2022-08-25T02:09:49.077Z,2.05
2022-08-25T02:14:43.427Z,1.80
2022-08-25T02:19:38.546Z,2.10
2022-08-25T02:24:32.148Z,2.30
2022-08-25T02:29:26.387Z,2.80
2022-08-25T02:34:19.091Z,3.33
2022-08-25T02:39:14.419Z,3.00
2022-08-25T02:44:08.957Z,3.30
2022-08-25T02:49:05.754Z,2.30
2022-08-25T02:54:02.267Z,2.42
2022-08-25T02:58:55.928Z,2.10
2022-08-25T03:03:53.047Z,3.08
2022-08-25T03:08:46.162Z,2.97
2022-08-25T03:13:40.754Z,3.60
2022-08-25T03:18:34.488Z,3.47
2022-08-25T03:23:29.174Z,4.18
2022-08-25T03:28:25.039Z,3.92
2022-08-25T03:33:24.818Z,3.60
2022-08-25T03:38:18.845Z,4.00
2022-08-25T03:43:14.689Z,4.03
2022-08-25T03:48:09.240Z,3.17
2022-08-25T03:53:03.479Z,4.10
2022-08-25T03:57:58.258Z,3.97
2022-08-25T04:02:52.009Z,3.47
2022-08-25T04:07:45.823Z,4.95
2022-08-25T04:12:40.729Z,3.50
2022-08-25T04:17:34.523Z,3.60
2022-08-25T04:22:29.107Z,3.53
2022-08-25T04:27:23.283Z,3.75
2022-08-25T04:32:17.821Z,4.35
2022-08-25T04:37:11.894Z,4.70
2022-08-25T04:42:06.879Z,5.05
2022-08-25T04:47:00.253Z,4.75
2022-08-25T04:51:54.837Z,4.63
2022-08-25T04:56:48.759Z,4.85
2022-08-25T05:01:43.543Z,4.93
2022-08-25T05:06:38.100Z,5.63
2022-08-25T05:11:32.054Z,5.40
2022-08-25T05:16:28.027Z,5.15
2022-08-25T05:21:23.710Z,5.10
2022-08-25T05:26:21.197Z,3.63
2022-08-25T05:31:16.874Z,4.55
2022-08-25T05:36:14.323Z,3.70
2022-08-25T05:41:13.895Z,3.88
2022-08-25T05:46:07.305Z,3.50
2022-08-25T05:51:07.024Z,2.95
2022-08-25T05:56:00.442Z,3.58
2022-08-25T06:05:47.513Z,4.35
2022-08-25T06:10:41.330Z,4.10
2022-08-25T06:15:35.127Z,5.30
2022-08-25T06:20:31.416Z,5.20
2022-08-25T06:25:26.967Z,5.10
2022-08-25T06:30:24.552Z,5.30
2022-08-25T06:35:23.816Z,5.78
2022-08-25T06:40:17.572Z,5.95
2022-08-25T06:45:12.535Z,5.05
2022-08-25T06:50:09.272Z,5.35
2022-08-25T06:55:08.340Z,4.97
2022-08-25T07:00:03.384Z,4.75
2022-08-25T07:04:58.068Z,5.05
2022-08-25T07:09:52.114Z,4.38
2022-08-25T07:14:58.111Z,4.43
2022-08-25T07:19:57.611Z,4.07
2022-08-25T07:24:51.956Z,3.53
2022-08-25T07:29:45.752Z,2.60
2022-08-25T07:34:59.507Z,3.63
2022-08-25T07:39:56.305Z,3.50
2022-08-25T07:44:51.445Z,2.90
2022-08-25T07:49:45.337Z,2.90
2022-08-25T07:54:38.554Z,2.58
2022-08-25T07:59:39.046Z,2.60
2022-08-25T08:04:33.820Z,3.13
2022-08-25T08:09:27.057Z,2.25
2022-08-25T08:14:21.604Z,4.05
2022-08-25T08:19:15.735Z,3.00
2022-08-25T08:24:24.825Z,3.20
2022-08-25T08:29:24.163Z,3.00
2022-08-25T08:34:18.518Z,3.05
2022-08-25T08:39:12.375Z,3.08
2022-08-25T08:44:33.529Z,2.75
2022-08-25T08:49:46.151Z,3.30
2022-08-25T08:54:41.550Z,2.95
2022-08-25T08:59:43.193Z,3.05
2022-08-25T09:04:50.516Z,2.70
2022-08-25T09:09:47.677Z,3.05
2022-08-25T09:14:58.456Z,3.08
2022-08-25T09:20:28.311Z,3.28
2022-08-25T09:25:52.324Z,3.20
2022-08-25T09:30:43.928Z,3.00
2022-08-25T09:35:41.525Z,2.92
2022-08-25T09:40:36.324Z,2.90
2022-08-25T09:45:45.685Z,3.03
2022-08-25T09:50:42.799Z,2.80
2022-08-25T09:55:42.428Z,2.88
2022-08-25T10:00:37.816Z,2.80
2022-08-25T10:05:35.268Z,3.35
2022-08-25T10:10:32.242Z,3.30
2022-08-25T10:15:31.375Z,3.13
2022-08-25T10:20:27.486Z,2.92
2022-08-25T10:25:31.795Z,3.72
2022-08-25T10:30:29.540Z,3.25
2022-08-25T10:35:35.354Z,3.05
2022-08-25T10:40:35.999Z,3.58
2022-08-25T10:45:46.908Z,3.10
2022-08-25T10:50:53.548Z,2.88
2022-08-25T10:56:16.046Z,3.30
2022-08-25T11:01:42.919Z,2.97
2022-08-25T11:06:41.668Z,2.80
2022-08-25T11:11:43.798Z,3.00
2022-08-25T11:16:58.876Z,3.20
2022-08-25T11:22:19.233Z,3.15
2022-08-25T11:27:18.468Z,3.08
2022-08-25T11:32:16.215Z,3.10
2022-08-25T11:37:21.311Z,2.80
2022-08-25T11:42:32.128Z,2.80
2022-08-25T11:47:40.661Z,3.30
2022-08-25T11:52:34.660Z,2.72
2022-08-25T11:57:30.297Z,3.22
2022-08-25T12:02:38.739Z,3.22
2022-08-25T12:08:13.757Z,3.25
2022-08-25T12:13:28.629Z,3.17
2022-08-25T12:18:24.180Z,2.97
2022-08-25T12:23:18.536Z,2.67
2022-08-25T12:28:40.824Z,3.25
2022-08-25T12:33:57.371Z,3.03
2022-08-25T12:38:52.536Z,3.33
2022-08-25T12:43:48.983Z,3.10
2022-08-25T12:48:54.301Z,3.30
2022-08-25T12:53:52.250Z,2.95
2022-08-25T12:59:00.935Z,3.25
2022-08-25T13:04:34.070Z,3.10
2022-08-25T13:10:04.075Z,3.25
2022-08-25T13:15:04.440Z,3.25
2022-08-25T13:20:25.989Z,3.30
2022-08-25T13:25:23.129Z,3.42
2022-08-25T13:30:48.344Z,3.40
2022-08-25T13:35:49.698Z,3.25
2022-08-25T13:40:46.148Z,3.17
2022-08-25T13:45:43.142Z,2.60
2022-08-25T13:50:38.183Z,3.13
2022-08-25T13:55:38.256Z,2.35
2022-08-25T14:00:48.231Z,2.95
2022-08-25T14:05:44.058Z,3.30
2022-08-25T14:10:43.925Z,3.00
2022-08-25T14:15:39.253Z,2.92
2022-08-25T14:20:34.306Z,3.03
2022-08-25T14:25:30.318Z,3.15
2022-08-25T14:30:28.621Z,3.10
2022-08-25T14:35:22.508Z,3.30
2022-08-25T14:40:20.139Z,2.67
2022-08-25T14:45:15.032Z,3.05
2022-08-25T14:50:11.827Z,3.05
2022-08-25T14:55:04.990Z,3.40
2022-08-25T15:00:00.137Z,3.90
2022-08-25T15:05:06.663Z,3.00
2022-08-25T15:10:00.916Z,3.10
2022-08-25T15:15:01.683Z,2.70
2022-08-25T15:19:55.380Z,3.17
2022-08-25T15:24:52.783Z,3.22
2022-08-25T15:29:46.825Z,3.50
2022-08-25T15:34:40.662Z,3.20
2022-08-25T15:39:35.154Z,3.00
2022-08-25T15:44:29.818Z,3.38
2022-08-25T15:49:24.127Z,3.17
2022-08-25T15:54:19.386Z,3.08
2022-08-25T15:59:14.453Z,2.90
2022-08-25T16:04:13.433Z,2.92
2022-08-25T16:09:08.188Z,3.20
2022-08-25T16:14:03.450Z,3.33
2022-08-25T16:18:57.876Z,3.50
2022-08-25T16:23:51.476Z,2.90
2022-08-25T16:28:45.948Z,2.92
2022-08-25T16:33:39.764Z,3.00
2022-08-25T16:38:34.007Z,3.20
2022-08-25T16:43:28.083Z,2.67
2022-08-25T16:48:22.228Z,3.10
2022-08-25T16:53:35.188Z,3.40
2022-08-25T16:58:30.026Z,3.53
2022-08-25T17:03:23.753Z,3.70
2022-08-25T17:08:30.510Z,3.40
2022-08-25T17:13:24.289Z,3.95
2022-08-25T17:18:18.532Z,3.30
2022-08-25T17:23:13.855Z,3.55
2022-08-25T17:28:08.345Z,3.60
2022-08-25T17:33:06.611Z,3.78
2022-08-25T17:38:01.299Z,3.50
2022-08-25T17:42:55.292Z,3.40
2022-08-25T17:47:49.977Z,3.55
2022-08-25T17:52:44.183Z,3.60
2022-08-25T17:57:43.927Z,3.65
2022-08-25T18:02:37.687Z,3.33
2022-08-25T18:07:31.413Z,3.55
2022-08-25T18:12:27.341Z,3.47
2022-08-25T18:17:22.988Z,3.75
2022-08-25T18:22:17.294Z,3.95
2022-08-25T18:27:11.445Z,3.88
2022-08-25T18:32:05.531Z,3.78
2022-08-25T18:37:23.315Z,4.05
2022-08-25T18:42:18.154Z,4.15
2022-08-25T18:47:12.246Z,4.18
2022-08-25T18:52:14.681Z,4.32
2022-08-25T18:57:13.764Z,4.15
2022-08-25T19:02:10.735Z,3.92
2022-08-25T19:07:10.352Z,4.32
2022-08-25T19:12:06.228Z,4.03
2022-08-25T19:17:06.681Z,4.13
2022-08-25T19:21:59.956Z,3.63
2022-08-25T19:26:54.966Z,4.00
2022-08-25T19:31:52.759Z,4.63
2022-08-25T19:36:46.995Z,4.13
2022-08-25T19:41:42.069Z,4.15
2022-08-25T19:46:43.035Z,4.30
2022-08-25T19:51:41.026Z,4.05
2022-08-25T19:56:43.713Z,4.80
2022-08-25T20:01:50.642Z,4.27
2022-08-25T20:06:48.325Z,4.57
2022-08-25T20:11:43.476Z,4.93
2022-08-25T20:16:37.506Z,4.40
2022-08-25T20:21:32.475Z,4.75
2022-08-25T20:26:27.611Z,4.90
2022-08-25T20:31:24.855Z,5.03
2022-08-25T20:36:20.975Z,4.50
2022-08-25T20:41:15.474Z,4.47
2022-08-25T20:46:15.570Z,5.15
2022-08-25T20:51:14.259Z,5.75
2022-08-25T20:56:16.636Z,5.32
2022-08-25T21:01:23.156Z,6.15
2022-08-25T21:06:18.187Z,6.13
2022-08-25T21:11:17.631Z,5.60
2022-08-25T21:16:15.186Z,6.30
2022-08-25T21:21:15.478Z,5.85
2022-08-25T21:26:22.967Z,5.00
2022-08-25T21:31:19.556Z,4.75
2022-08-25T21:36:21.159Z,4.13
2022-08-25T21:41:35.670Z,4.53
2022-08-25T21:46:33.071Z,5.38
2022-08-25T21:51:40.512Z,4.57
2022-08-25T21:56:46.900Z,4.38
2022-08-25T22:01:47.117Z,4.82
2022-08-25T22:06:42.741Z,4.57
2022-08-25T22:11:39.711Z,4.60
2022-08-25T22:16:36.213Z,4.45
2022-08-25T22:21:37.578Z,4.53
2022-08-25T22:26:35.101Z,5.38
2022-08-25T22:31:33.974Z,5.15
2022-08-25T22:36:30.573Z,5.10
2022-08-25T22:41:33.083Z,5.75
2022-08-25T22:46:31.098Z,4.70
2022-08-25T22:51:32.980Z,5.03
2022-08-25T22:56:35.101Z,5.03
2022-08-25T23:01:29.711Z,4.55
2022-08-25T23:06:27.379Z,4.63
2022-08-25T23:11:20.410Z,4.50
2022-08-25T23:16:16.980Z,4.65
2022-08-25T23:21:35.576Z,4.70
2022-08-25T23:26:36.343Z,4.28
2022-08-25T23:31:30.327Z,4.95
2022-08-25T23:36:25.639Z,4.68
2022-08-25T23:41:21.494Z,4.47
2022-08-25T23:46:20.634Z,4.70
2022-08-25T23:51:28.479Z,4.93
2022-08-25T23:56:25.300Z,4.53
